createdAt,value
2019-02-28T00:00:40.683Z,25.87
2019-02-28T00:03:07.261Z,24.07
2019-02-28T00:05:37.913Z,24.43
2019-02-28T00:08:05.373Z,24.12
2019-02-28T00:10:33.111Z,23.70
2019-02-28T00:13:00.894Z,23.37
2019-02-28T00:15:29.635Z,24.30
2019-02-28T00:17:58.257Z,25.10
2019-02-28T00:20:26.023Z,25.13
2019-02-28T00:22:53.726Z,25.13
2019-02-28T00:25:21.411Z,24.23
2019-02-28T00:27:49.112Z,25.73
2019-02-28T00:30:16.760Z,24.27
2019-02-28T00:32:44.544Z,25.97
2019-02-28T00:35:13.358Z,26.70
2019-02-28T00:37:41.818Z,25.97
2019-02-28T00:40:10.197Z,25.17
2019-02-28T00:42:37.964Z,26.00
2019-02-28T00:45:07.263Z,26.73
2019-02-28T00:47:35.030Z,26.97
2019-02-28T00:50:02.798Z,25.80
2019-02-28T00:52:32.050Z,26.07
2019-02-28T00:54:59.861Z,27.87
2019-02-28T00:57:27.581Z,27.90
2019-02-28T00:59:55.504Z,27.47
2019-02-28T01:02:23.380Z,30.13
2019-02-28T01:04:51.129Z,26.87
2019-02-28T01:07:18.903Z,28.93
2019-02-28T01:09:46.546Z,28.80
2019-02-28T01:12:18.878Z,28.50
2019-02-28T01:14:43.847Z,30.23
2019-02-28T01:17:11.596Z,30.13
2019-02-28T01:19:41.328Z,30.53
2019-02-28T01:22:08.872Z,30.20
2019-02-28T01:24:36.640Z,31.93
2019-02-28T01:27:04.508Z,31.30
2019-02-28T01:29:32.940Z,29.60
2019-02-28T01:32:01.673Z,30.40
2019-02-28T01:34:32.178Z,29.80
2019-02-28T01:36:58.827Z,31.80
2019-02-28T01:39:29.962Z,30.10
2019-02-28T01:41:56.526Z,29.87
2019-02-28T01:44:24.252Z,29.17
2019-02-28T01:46:51.960Z,30.00
2019-02-28T01:49:19.737Z,29.97
2019-02-28T01:51:47.488Z,30.23
2019-02-28T01:54:15.348Z,31.90
2019-02-28T01:56:43.075Z,32.13
2019-02-28T01:59:10.788Z,30.97
2019-02-28T02:01:38.551Z,29.53
2019-02-28T02:04:06.416Z,30.07
2019-02-28T02:06:34.287Z,30.87
2019-02-28T02:09:02.155Z,30.83
2019-02-28T02:11:29.925Z,32.07
2019-02-28T02:13:57.701Z,31.87
2019-02-28T02:16:27.658Z,33.37
2019-02-28T02:18:54.965Z,31.03
2019-02-28T02:21:22.837Z,31.13
2019-02-28T02:23:52.988Z,33.10
2019-02-28T02:26:19.890Z,32.10
2019-02-28T02:28:47.676Z,32.47
2019-02-28T02:31:15.536Z,30.33
2019-02-28T02:33:43.358Z,30.53
2019-02-28T02:36:11.025Z,31.90
2019-02-28T02:38:41.451Z,31.97
2019-02-28T02:41:08.249Z,28.77
2019-02-28T02:43:36.108Z,29.87
2019-02-28T02:46:03.864Z,30.67
2019-02-28T02:48:31.633Z,30.47
2019-02-28T02:50:59.500Z,30.07
2019-02-28T02:53:27.375Z,31.43
2019-02-28T02:55:55.132Z,31.07
2019-02-28T02:58:26.891Z,30.03
2019-02-28T03:00:52.314Z,30.70
2019-02-28T03:03:19.978Z,29.53
2019-02-28T03:05:47.723Z,30.03
2019-02-28T03:08:15.607Z,29.33
2019-02-28T03:10:43.368Z,30.53
2019-02-28T03:13:11.136Z,29.80
2019-02-28T03:15:38.898Z,29.17
2019-02-28T03:18:06.620Z,29.43
2019-02-28T03:20:34.332Z,28.50
2019-02-28T03:23:03.306Z,29.87
2019-02-28T03:25:31.521Z,30.70
2019-02-28T03:27:59.221Z,28.83
2019-02-28T03:30:31.906Z,29.73
2019-02-28T03:32:56.437Z,27.83
2019-02-28T03:35:24.303Z,28.77
2019-02-28T03:37:52.177Z,28.23
2019-02-28T03:40:20.044Z,28.77
2019-02-28T03:42:47.849Z,27.97
2019-02-28T03:45:15.818Z,26.80
2019-02-28T03:47:43.656Z,27.47
2019-02-28T03:50:11.927Z,27.63
2019-02-28T03:52:43.906Z,28.97
2019-02-28T03:55:10.635Z,26.77
2019-02-28T03:57:38.396Z,28.27
2019-02-28T04:00:16.847Z,26.10
2019-02-28T04:02:44.564Z,26.70
2019-02-28T04:05:12.340Z,26.17
2019-02-28T04:07:40.041Z,26.77
2019-02-28T04:10:09.105Z,26.90
2019-02-28T04:12:45.075Z,26.07
2019-02-28T04:15:10.060Z,25.27
2019-02-28T04:17:37.440Z,25.13
2019-02-28T04:20:06.411Z,25.65
2019-02-28T04:22:34.294Z,25.40
2019-02-28T04:25:02.032Z,26.07
2019-02-28T04:27:29.812Z,25.40
2019-02-28T04:29:57.686Z,25.70
2019-02-28T04:32:27.642Z,26.13
2019-02-28T04:34:54.970Z,26.80
2019-02-28T04:37:22.826Z,23.73
2019-02-28T04:39:53.364Z,27.40
2019-02-28T04:42:19.993Z,28.57
2019-02-28T04:44:49.200Z,29.43
2019-02-28T04:47:17.269Z,26.17
2019-02-28T04:49:45.036Z,28.60
2019-02-28T04:52:12.844Z,27.30
2019-02-28T04:54:40.771Z,25.00
2019-02-28T04:57:08.549Z,24.43
2019-02-28T04:59:36.301Z,24.00
2019-02-28T05:02:04.172Z,23.90
2019-02-28T05:04:33.258Z,23.33
2019-02-28T05:07:01.324Z,25.43
2019-02-28T05:09:29.020Z,23.60
2019-02-28T05:11:56.731Z,23.57
2019-02-28T05:14:24.449Z,25.10
2019-02-28T05:16:52.405Z,28.37
2019-02-28T05:19:20.152Z,23.47
2019-02-28T05:21:50.637Z,25.07
2019-02-28T05:24:17.852Z,24.70
2019-02-28T05:26:45.633Z,25.23
2019-02-28T05:29:13.367Z,24.40
2019-02-28T05:31:41.265Z,23.63
2019-02-28T05:34:09.016Z,21.90
2019-02-28T05:36:37.861Z,22.53
2019-02-28T05:39:06.085Z,23.43
2019-02-28T05:41:33.858Z,44.33
2019-02-28T05:44:03.217Z,24.07
2019-02-28T05:46:31.120Z,24.37
2019-02-28T05:48:58.995Z,32.53
2019-02-28T05:51:26.864Z,23.77
2019-02-28T05:53:54.586Z,22.83
2019-02-28T05:56:22.388Z,24.93
2019-02-28T05:58:52.515Z,22.90
2019-02-28T06:01:19.393Z,24.30
2019-02-28T06:03:47.124Z,25.00
2019-02-28T06:06:17.215Z,25.07
2019-02-28T06:08:44.312Z,79.33
2019-02-28T06:11:12.266Z,24.33
2019-02-28T06:13:40.135Z,31.33
2019-02-28T06:16:11.291Z,21.77
2019-02-28T06:18:37.401Z,21.03
2019-02-28T06:21:05.176Z,20.77
2019-02-28T06:23:32.919Z,22.70
2019-02-28T06:26:00.899Z,22.77
2019-02-28T06:28:31.135Z,21.60
2019-02-28T06:31:00.129Z,21.23
2019-02-28T06:33:30.588Z,21.83
2019-02-28T06:35:56.887Z,21.77
2019-02-28T06:38:24.772Z,20.77
2019-02-28T06:40:52.517Z,20.70
2019-02-28T06:43:20.493Z,20.50
2019-02-28T06:45:48.560Z,20.47
2019-02-28T06:48:16.330Z,18.63
2019-02-28T06:50:44.902Z,18.50
2019-02-28T06:53:13.276Z,18.47
2019-02-28T06:55:43.485Z,18.13
2019-02-28T06:58:11.939Z,17.40
2019-02-28T07:00:39.773Z,17.27
2019-02-28T07:03:07.642Z,16.53
2019-02-28T07:05:35.506Z,15.00
2019-02-28T07:08:03.193Z,14.77
2019-02-28T07:10:30.949Z,17.43
2019-02-28T07:13:04.274Z,16.87
2019-02-28T07:15:28.203Z,16.13
2019-02-28T07:17:55.861Z,16.87
2019-02-28T07:20:23.844Z,16.70
2019-02-28T07:22:54.942Z,16.27
2019-02-28T07:25:20.895Z,15.60
2019-02-28T07:27:48.605Z,15.63
2019-02-28T07:30:19.001Z,15.97
2019-02-28T07:32:47.139Z,14.30
2019-02-28T07:35:14.875Z,14.87
2019-02-28T07:37:42.713Z,15.03
2019-02-28T07:40:15.753Z,15.17
2019-02-28T07:42:41.518Z,13.73
2019-02-28T07:45:12.134Z,13.80
2019-02-28T07:47:40.319Z,13.67
2019-02-28T07:50:10.706Z,13.47
2019-02-28T07:52:38.720Z,13.10
2019-02-28T07:55:10.935Z,12.87
2019-02-28T07:57:38.654Z,13.30
2019-02-28T08:00:07.816Z,12.00
2019-02-28T08:02:39.019Z,14.13
2019-02-28T08:05:06.769Z,12.10
2019-02-28T08:07:34.634Z,12.27
2019-02-28T08:10:02.514Z,14.57
2019-02-28T08:12:30.778Z,13.37
2019-02-28T08:14:59.160Z,12.70
2019-02-28T08:17:27.808Z,12.33
2019-02-28T08:19:58.742Z,11.93
2019-02-28T08:22:24.913Z,11.60
2019-02-28T08:24:52.700Z,13.30
2019-02-28T08:27:20.452Z,12.40
2019-02-28T08:29:48.180Z,11.50
2019-02-28T08:32:15.863Z,11.97
2019-02-28T08:34:43.582Z,11.97
2019-02-28T08:37:11.424Z,12.43
2019-02-28T08:39:41.218Z,12.10
2019-02-28T08:42:08.482Z,11.60
2019-02-28T08:44:36.549Z,12.17
2019-02-28T08:47:04.430Z,11.90
2019-02-28T08:49:32.291Z,12.60
2019-02-28T08:52:02.568Z,12.07
2019-02-28T08:54:29.462Z,12.30
2019-02-28T08:56:57.222Z,12.13
2019-02-28T08:59:24.972Z,12.10
2019-02-28T09:01:52.636Z,11.73
2019-02-28T09:04:20.403Z,13.67
2019-02-28T09:06:48.179Z,13.97
2019-02-28T09:09:16.050Z,14.07
2019-02-28T09:11:44.195Z,12.80
2019-02-28T09:14:14.789Z,13.27
2019-02-28T09:16:41.414Z,15.53
2019-02-28T09:19:09.269Z,14.53
2019-02-28T09:21:36.984Z,15.43
2019-02-28T09:24:05.308Z,15.18
2019-02-28T09:26:33.096Z,15.23
2019-02-28T09:29:00.948Z,14.00
2019-02-28T09:31:28.681Z,15.57
2019-02-28T09:33:58.885Z,16.27
2019-02-28T09:36:25.793Z,18.80
2019-02-28T09:38:57.078Z,18.27
2019-02-28T09:41:22.966Z,17.47
2019-02-28T09:43:50.708Z,17.87
2019-02-28T09:46:18.845Z,20.70
2019-02-28T09:48:46.859Z,18.57
2019-02-28T09:51:14.607Z,18.93
2019-02-28T09:53:42.393Z,16.77
2019-02-28T09:56:10.162Z,20.00
2019-02-28T09:58:38.129Z,21.53
2019-02-28T10:01:05.911Z,18.67
2019-02-28T10:03:34.692Z,21.07
2019-02-28T10:06:02.554Z,17.33
2019-02-28T10:08:30.412Z,18.07
2019-02-28T10:10:58.094Z,19.00
2019-02-28T10:13:26.058Z,18.60
2019-02-28T10:15:53.772Z,26.90
2019-02-28T10:18:21.470Z,27.50
2019-02-28T10:20:49.356Z,27.10
2019-02-28T10:23:18.361Z,24.43
2019-02-28T10:25:46.531Z,16.67
2019-02-28T10:28:16.237Z,20.03
2019-02-28T10:30:43.871Z,18.03
2019-02-28T10:33:14.259Z,19.40
2019-02-28T10:35:41.178Z,19.80
2019-02-28T10:38:09.042Z,18.87
2019-02-28T10:40:36.671Z,19.73
2019-02-28T10:43:04.352Z,15.30
2019-02-28T10:45:32.237Z,26.87
2019-02-28T10:48:02.933Z,29.17
2019-02-28T10:50:33.239Z,29.53
2019-02-28T10:53:04.100Z,30.20
2019-02-28T10:55:28.847Z,32.27
2019-02-28T10:57:56.497Z,28.73
2019-02-28T11:00:32.828Z,29.73
2019-02-28T11:03:01.528Z,30.40
2019-02-28T11:05:30.128Z,27.60
2019-02-28T11:07:58.114Z,24.37
2019-02-28T11:10:34.807Z,25.23
2019-02-28T11:13:00.307Z,26.17
2019-02-28T11:15:28.362Z,22.87
2019-02-28T11:17:56.235Z,25.07
2019-02-28T11:20:26.319Z,24.43
2019-02-28T11:22:53.504Z,26.47
2019-02-28T11:25:22.710Z,25.57
2019-02-28T11:27:53.683Z,24.87
2019-02-28T11:30:27.127Z,27.83
2019-02-28T11:32:54.775Z,26.60
2019-02-28T11:35:23.201Z,22.67
2019-02-28T11:37:51.685Z,32.43
2019-02-28T11:40:20.661Z,25.97
2019-02-28T11:42:48.624Z,29.20
2019-02-28T11:45:21.931Z,24.73
2019-02-28T11:47:51.440Z,24.53
2019-02-28T11:50:19.406Z,23.97
2019-02-28T11:52:47.115Z,25.57
2019-02-28T11:55:16.749Z,25.53
2019-02-28T11:57:44.336Z,22.57
2019-02-28T12:00:13.746Z,19.63
2019-02-28T12:02:41.618Z,21.83
2019-02-28T12:05:12.380Z,18.73
2019-02-28T12:07:39.096Z,17.37
2019-02-28T12:10:07.880Z,18.63
2019-02-28T12:12:35.648Z,17.73
2019-02-28T12:15:06.099Z,13.97
2019-02-28T12:17:34.577Z,12.23
2019-02-28T12:20:03.902Z,13.67
2019-02-28T12:22:31.837Z,12.50
2019-02-28T12:24:59.640Z,12.73
2019-02-28T12:27:28.219Z,16.47
2019-02-28T12:29:56.357Z,13.83
2019-02-28T12:32:24.125Z,14.90
2019-02-28T12:34:51.918Z,12.87
2019-02-28T12:37:22.026Z,13.30
2019-02-28T12:39:49.426Z,14.13
2019-02-28T12:42:17.132Z,12.90
2019-02-28T12:44:46.235Z,14.70
2019-02-28T12:47:13.997Z,13.53
2019-02-28T12:49:42.112Z,14.60
2019-02-28T12:52:11.228Z,12.97
2019-02-28T12:54:39.337Z,14.80
2019-02-28T12:57:07.311Z,14.43
2019-02-28T12:59:35.045Z,15.50
2019-02-28T13:02:07.532Z,18.60
2019-02-28T13:04:32.520Z,14.23
2019-02-28T13:07:01.553Z,16.63
2019-02-28T13:09:30.277Z,19.47
2019-02-28T13:11:58.412Z,17.93
2019-02-28T13:14:26.390Z,18.37
2019-02-28T13:16:54.557Z,18.00
2019-02-28T13:19:24.073Z,16.20
2019-02-28T13:21:51.842Z,16.50
2019-02-28T13:24:20.468Z,16.30
2019-02-28T13:26:48.278Z,14.70
2019-02-28T13:29:17.803Z,15.23
2019-02-28T13:31:45.668Z,12.93
2019-02-28T13:34:13.431Z,14.33
2019-02-28T13:36:41.209Z,15.27
2019-02-28T13:39:09.059Z,12.90
2019-02-28T13:41:36.929Z,18.83
2019-02-28T13:44:05.634Z,14.23
2019-02-28T13:46:34.394Z,16.63
2019-02-28T13:49:02.480Z,13.37
2019-02-28T13:51:30.351Z,12.27
2019-02-28T13:53:58.099Z,13.07
2019-02-28T13:56:29.023Z,14.30
2019-02-28T13:58:57.287Z,14.77
2019-02-28T14:01:24.993Z,13.00
2019-02-28T14:03:52.753Z,13.30
2019-02-28T14:06:20.933Z,15.33
2019-02-28T14:08:48.811Z,15.33
2019-02-28T14:11:17.713Z,12.63
2019-02-28T14:13:45.466Z,14.27
2019-02-28T14:16:13.338Z,13.17
2019-02-28T14:18:42.512Z,13.03
2019-02-28T14:21:10.709Z,13.97
2019-02-28T14:23:38.427Z,14.70
2019-02-28T14:26:06.236Z,13.83
2019-02-28T14:28:35.653Z,13.20
2019-02-28T14:31:03.304Z,12.47
2019-02-28T14:33:31.279Z,14.23
2019-02-28T14:35:59.362Z,12.70
2019-02-28T14:38:29.611Z,11.67
2019-02-28T14:40:56.503Z,11.60
2019-02-28T14:43:24.167Z,12.33
2019-02-28T14:45:52.049Z,11.87
2019-02-28T14:48:19.800Z,12.33
2019-02-28T14:50:50.737Z,11.20
2019-02-28T14:53:16.957Z,10.67
2019-02-28T14:55:44.635Z,10.73
2019-02-28T14:58:12.399Z,10.07
2019-02-28T15:00:42.279Z,9.40
2019-02-28T15:03:09.581Z,12.63
2019-02-28T15:05:41.137Z,14.60
2019-02-28T15:08:11.848Z,11.83
2019-02-28T15:10:38.310Z,10.73
2019-02-28T15:13:06.087Z,9.10
2019-02-28T15:15:35.903Z,41.17
2019-02-28T15:18:03.140Z,104.63
2019-02-28T15:20:32.794Z,26.07
2019-02-28T15:23:00.290Z,14.67
2019-02-28T15:25:28.913Z,13.70
2019-02-28T15:27:57.381Z,13.27
2019-02-28T15:30:35.388Z,12.90
2019-02-28T15:33:03.024Z,13.40
2019-02-28T15:35:30.927Z,12.57
2019-02-28T15:37:58.556Z,14.70
2019-02-28T15:40:33.420Z,14.20
2019-02-28T15:43:01.491Z,13.10
2019-02-28T15:45:29.547Z,12.10
2019-02-28T15:47:58.978Z,14.07
2019-02-28T15:50:26.733Z,18.50
2019-02-28T15:52:54.684Z,19.60
2019-02-28T15:55:22.786Z,21.97
2019-02-28T15:57:50.640Z,13.70
2019-02-28T16:00:23.144Z,23.30
2019-02-28T16:05:17.207Z,17.17
2019-02-28T16:07:44.967Z,23.20
2019-02-28T16:10:14.597Z,23.20
2019-02-28T16:12:42.345Z,24.40
2019-02-28T16:15:11.938Z,16.87
2019-02-28T16:17:40.659Z,17.10
2019-02-28T16:20:12.107Z,17.60
2019-02-28T16:22:39.850Z,17.03
2019-02-28T16:25:20.857Z,17.43
2019-02-28T16:27:48.717Z,18.27
2019-02-28T16:30:17.117Z,24.63
2019-02-28T16:32:45.543Z,28.23
2019-02-28T16:35:15.324Z,27.60
2019-02-28T16:37:43.160Z,29.40
2019-02-28T16:40:12.370Z,41.07
2019-02-28T16:42:40.131Z,28.03
2019-02-28T16:45:25.553Z,25.53
2019-02-28T16:47:55.708Z,21.57
2019-02-28T16:50:22.864Z,24.17
2019-02-28T16:52:50.644Z,24.63
2019-02-28T16:55:18.923Z,27.27
2019-02-28T16:57:47.114Z,33.07
2019-02-28T17:00:16.896Z,33.50
2019-02-28T17:02:44.789Z,37.67
2019-02-28T17:05:12.659Z,34.53
2019-02-28T17:07:40.515Z,51.43
2019-02-28T17:10:15.397Z,53.40
2019-02-28T17:13:03.196Z,43.77
2019-02-28T17:15:34.657Z,44.80
2019-02-28T17:18:03.949Z,54.80
2019-02-28T17:20:31.709Z,46.23
2019-02-28T17:23:01.465Z,43.40
2019-02-28T17:25:28.994Z,32.33
2019-02-28T17:27:58.381Z,41.87
2019-02-28T17:30:37.035Z,33.20
2019-02-28T17:33:05.840Z,23.63
2019-02-28T17:35:34.900Z,20.57
2019-02-28T17:38:02.966Z,21.37
2019-02-28T17:40:30.625Z,18.87
2019-02-28T17:42:58.275Z,25.63
2019-02-28T17:45:26.361Z,28.50
2019-02-28T17:47:58.341Z,25.57
2019-02-28T17:50:30.665Z,22.93
2019-02-28T17:53:02.868Z,23.07
2019-02-28T17:55:44.386Z,23.37
2019-02-28T17:58:19.704Z,28.33
2019-02-28T18:01:01.398Z,35.43
2019-02-28T18:03:36.492Z,37.87
2019-02-28T18:06:05.612Z,31.53
2019-02-28T18:08:38.604Z,43.50
2019-02-28T18:11:17.001Z,36.57
2019-02-28T18:13:56.128Z,26.63
2019-02-28T18:16:25.366Z,24.83
2019-02-28T18:19:06.754Z,23.73
2019-02-28T18:21:44.960Z,19.93
2019-02-28T18:24:14.151Z,20.30
2019-02-28T18:26:43.666Z,20.50
2019-02-28T18:29:21.964Z,23.37
2019-02-28T18:31:49.660Z,19.33
2019-02-28T18:34:20.604Z,26.73
2019-02-28T18:36:47.026Z,25.97
2019-02-28T18:39:14.722Z,23.17
2019-02-28T18:41:43.192Z,20.87
2019-02-28T18:44:11.044Z,22.20
2019-02-28T18:46:38.902Z,24.07
2019-02-28T18:49:06.675Z,48.47
2019-02-28T18:51:34.540Z,57.33
2019-02-28T18:54:02.318Z,46.30
2019-02-28T18:56:30.061Z,36.53
2019-02-28T18:58:57.937Z,29.23
2019-02-28T19:01:25.618Z,20.23
2019-02-28T19:03:53.460Z,19.10
2019-02-28T19:06:21.236Z,21.73
2019-02-28T19:08:49.221Z,19.90
2019-02-28T19:11:17.074Z,25.87
2019-02-28T19:13:45.248Z,21.40
2019-02-28T19:16:13.011Z,21.70
2019-02-28T19:18:40.848Z,22.80
2019-02-28T19:21:09.164Z,21.23
2019-02-28T19:23:36.807Z,23.03
2019-02-28T19:26:05.714Z,25.68
2019-02-28T19:28:33.587Z,24.53
2019-02-28T19:31:01.314Z,23.13
2019-02-28T19:33:29.008Z,23.00
2019-02-28T19:35:56.793Z,22.20
2019-02-28T19:38:24.753Z,23.10
2019-02-28T19:40:52.621Z,22.30
2019-02-28T19:43:20.591Z,25.33
2019-02-28T19:45:49.679Z,24.67
2019-02-28T19:48:17.559Z,25.07
2019-02-28T19:50:47.329Z,24.53
2019-02-28T19:53:20.479Z,22.87
2019-02-28T19:55:45.974Z,27.57
2019-02-28T19:58:13.719Z,24.87
2019-02-28T20:00:41.622Z,27.60
2019-02-28T20:03:09.365Z,27.63
2019-02-28T20:05:37.145Z,27.83
2019-02-28T20:08:05.649Z,27.75
2019-02-28T20:10:33.401Z,29.67
2019-02-28T20:13:01.266Z,29.27
2019-02-28T20:15:30.556Z,29.77
2019-02-28T20:17:58.422Z,29.87
2019-02-28T20:20:27.832Z,30.63
2019-02-28T20:22:55.478Z,29.13
2019-02-28T20:25:23.255Z,34.67
2019-02-28T20:27:51.026Z,31.20
2019-02-28T20:30:19.915Z,30.63
2019-02-28T20:32:47.684Z,29.50
2019-02-28T20:35:15.549Z,30.00
2019-02-28T20:37:43.312Z,29.57
2019-02-28T20:40:14.002Z,31.03
2019-02-28T20:42:41.817Z,29.00
2019-02-28T20:45:10.817Z,29.10
2019-02-28T20:47:38.577Z,30.63
2019-02-28T20:50:13.819Z,30.70
2019-02-28T20:52:41.515Z,30.77
2019-02-28T20:55:09.564Z,30.37
2019-02-28T20:57:37.321Z,32.20
2019-02-28T21:00:07.129Z,32.50
2019-02-28T21:02:34.916Z,34.23
2019-02-28T21:05:02.681Z,36.80
2019-02-28T21:07:30.733Z,34.83
2019-02-28T21:09:58.508Z,41.17
2019-02-28T21:12:26.269Z,42.90
2019-02-28T21:14:54.036Z,35.30
2019-02-28T21:17:29.215Z,49.30
2019-02-28T21:19:51.087Z,33.67
2019-02-28T21:22:18.822Z,37.03
2019-02-28T21:24:46.514Z,36.10
2019-02-28T21:27:14.612Z,37.20
2019-02-28T21:29:42.985Z,38.90
2019-02-28T21:32:10.868Z,37.40
2019-02-28T21:34:38.727Z,35.53
2019-02-28T21:37:06.553Z,34.07
2019-02-28T21:39:34.244Z,35.67
2019-02-28T21:42:01.917Z,36.33
2019-02-28T21:44:29.693Z,37.67
2019-02-28T21:46:57.396Z,36.27
2019-02-28T21:49:25.099Z,37.53
2019-02-28T21:51:52.775Z,36.57
2019-02-28T21:54:20.648Z,37.23
2019-02-28T21:56:48.416Z,37.27
2019-02-28T21:59:16.167Z,39.20
2019-02-28T22:01:43.865Z,36.97
2019-02-28T22:04:11.728Z,35.83
2019-02-28T22:06:39.469Z,35.47
2019-02-28T22:09:08.056Z,35.47
2019-02-28T22:11:35.824Z,34.37
2019-02-28T22:14:03.696Z,35.17
2019-02-28T22:16:31.458Z,34.07
2019-02-28T22:18:59.314Z,32.07
2019-02-28T22:21:27.093Z,32.57
2019-02-28T22:23:54.820Z,34.57
2019-02-28T22:26:22.624Z,32.70
2019-02-28T22:28:50.332Z,33.73
2019-02-28T22:31:26.306Z,32.83
2019-02-28T22:33:55.753Z,33.43
2019-02-28T22:36:25.039Z,34.13
2019-02-28T22:38:52.948Z,33.77
2019-02-28T22:41:20.720Z,33.30
2019-02-28T22:43:48.459Z,32.13
2019-02-28T22:46:16.218Z,32.53
2019-02-28T22:48:43.980Z,33.37
2019-02-28T22:51:11.994Z,38.00
2019-02-28T22:53:39.741Z,34.17
2019-02-28T22:56:07.418Z,32.50
2019-02-28T22:58:35.150Z,33.90
2019-02-28T23:01:08.977Z,34.33
2019-02-28T23:03:37.053Z,34.93
2019-02-28T23:06:05.504Z,31.15
2019-02-28T23:08:33.376Z,30.63
2019-02-28T23:11:01.151Z,32.53
2019-02-28T23:13:28.899Z,30.57
2019-02-28T23:15:56.664Z,30.27
2019-02-28T23:18:24.565Z,31.27
2019-02-28T23:20:52.422Z,29.93
2019-02-28T23:23:20.289Z,31.97
2019-02-28T23:25:47.944Z,29.80
2019-02-28T23:28:17.255Z,31.23
2019-02-28T23:30:52.201Z,30.23
2019-02-28T23:33:19.960Z,32.57
2019-02-28T23:35:47.643Z,30.30
2019-02-28T23:38:15.590Z,30.67
2019-02-28T23:40:43.311Z,29.17
2019-02-28T23:43:10.959Z,28.97
2019-02-28T23:45:38.780Z,30.53
2019-02-28T23:48:06.548Z,31.27
2019-02-28T23:50:34.522Z,30.67
2019-02-28T23:53:02.285Z,30.93
2019-02-28T23:55:30.043Z,29.27
2019-02-28T23:57:57.724Z,31.23
